createdAt,value
2018-02-11T00:00:06.402Z,51.81
2018-02-11T00:02:33.936Z,51.35
2018-02-11T00:05:01.373Z,51.04
2018-02-11T00:07:28.887Z,51.43
2018-02-11T00:09:56.346Z,52.16
2018-02-11T00:12:23.813Z,52.52
2018-02-11T00:14:51.321Z,52.51
2018-02-11T00:17:18.795Z,52.17
2018-02-11T00:19:46.499Z,52.28
2018-02-11T00:22:14.025Z,52.57
2018-02-11T00:24:41.444Z,52.86
2018-02-11T00:27:08.906Z,53.11
2018-02-11T00:29:36.392Z,53.37
2018-02-11T00:32:03.844Z,53.77
2018-02-11T00:34:31.354Z,54.27
2018-02-11T00:36:58.902Z,54.40
2018-02-11T00:39:26.361Z,54.32
2018-02-11T00:41:53.785Z,54.45
2018-02-11T00:44:21.306Z,54.76
2018-02-11T00:46:48.795Z,54.93
2018-02-11T00:51:50.062Z,54.81
2018-02-11T00:54:17.565Z,54.83
2018-02-11T00:56:45.014Z,54.93
2018-02-11T00:59:12.655Z,55.12
2018-02-11T01:01:40.081Z,55.18
2018-02-11T01:04:07.580Z,55.00
2018-02-11T01:06:35.055Z,55.01
2018-02-11T01:09:02.588Z,55.31
2018-02-11T01:11:30.084Z,55.27
2018-02-11T01:13:57.585Z,55.54
2018-02-11T01:16:25.090Z,55.72
2018-02-11T01:18:52.539Z,55.78
2018-02-11T01:21:20.042Z,55.61
2018-02-11T01:23:47.510Z,55.51
2018-02-11T01:26:15.137Z,55.47
2018-02-11T01:28:42.629Z,55.36
2018-02-11T01:31:10.155Z,55.27
2018-02-11T01:33:37.591Z,55.73
2018-02-11T01:36:05.101Z,56.24
2018-02-11T01:38:32.574Z,56.43
2018-02-11T01:41:00.077Z,56.45
2018-02-11T01:43:27.543Z,56.49
2018-02-11T01:45:55.077Z,56.63
2018-02-11T01:48:22.477Z,57.08
2018-02-11T01:50:50.233Z,57.19
2018-02-11T01:53:17.834Z,57.19
2018-02-11T01:55:45.355Z,57.21
2018-02-11T01:58:12.802Z,57.47
2018-02-11T02:00:40.294Z,57.62
2018-02-11T02:03:07.752Z,58.03
2018-02-11T02:05:35.252Z,58.25
2018-02-11T02:08:02.966Z,58.29
2018-02-11T02:10:30.443Z,58.42
2018-02-11T02:12:57.908Z,58.17
2018-02-11T02:15:25.378Z,57.82
2018-02-11T02:17:52.773Z,57.73
2018-02-11T02:20:20.284Z,57.63
2018-02-11T02:22:47.808Z,57.50
2018-02-11T02:25:15.260Z,57.65
2018-02-11T02:27:42.740Z,57.43
2018-02-11T02:30:10.240Z,57.59
2018-02-11T02:32:37.759Z,57.87
2018-02-11T02:35:05.254Z,58.29
2018-02-11T02:37:32.835Z,58.29
2018-02-11T02:40:00.338Z,58.00
2018-02-11T02:42:27.894Z,58.00
2018-02-11T02:44:55.349Z,58.39
2018-02-11T02:47:22.870Z,58.42
2018-02-11T02:49:50.267Z,58.29
2018-02-11T02:52:17.820Z,58.33
2018-02-11T02:54:45.427Z,58.00
2018-02-11T02:57:12.897Z,57.90
2018-02-11T02:59:40.369Z,57.90
2018-02-11T03:02:07.874Z,57.73
2018-02-11T03:04:35.378Z,57.71
2018-02-11T03:07:02.802Z,57.45
2018-02-11T03:09:30.385Z,57.34
2018-02-11T03:11:57.889Z,56.91
2018-02-11T03:14:25.423Z,57.21
2018-02-11T03:16:52.893Z,57.45
2018-02-11T03:19:20.299Z,57.24
2018-02-11T03:21:47.810Z,56.82
2018-02-11T03:24:15.270Z,56.71
2018-02-11T03:26:42.791Z,56.52
2018-02-11T03:29:10.290Z,56.31
2018-02-11T03:31:37.768Z,55.91
2018-02-11T03:34:05.250Z,56.19
2018-02-11T03:36:32.763Z,56.18
2018-02-11T03:39:00.209Z,55.96
2018-02-11T03:41:27.736Z,55.50
2018-02-11T03:43:55.945Z,55.11
2018-02-11T03:46:23.517Z,54.69
2018-02-11T03:48:51.020Z,54.74
2018-02-11T03:51:18.513Z,54.46
2018-02-11T03:53:45.989Z,54.28
2018-02-11T03:56:13.454Z,54.22
2018-02-11T03:58:40.893Z,54.28
2018-02-11T04:01:08.345Z,54.07
2018-02-11T04:03:35.766Z,54.28
2018-02-11T04:06:03.282Z,54.58
2018-02-11T04:08:30.833Z,54.77
2018-02-11T04:10:58.237Z,54.87
2018-02-11T04:13:25.741Z,55.01
2018-02-11T04:15:53.242Z,54.71
2018-02-11T04:18:20.703Z,54.65
2018-02-11T04:20:48.205Z,54.42
2018-02-11T04:23:15.761Z,54.82
2018-02-11T04:25:43.282Z,55.46
2018-02-11T04:28:10.816Z,55.78
2018-02-11T04:30:38.296Z,55.60
2018-02-11T04:33:05.741Z,55.46
2018-02-11T04:35:33.223Z,55.24
2018-02-11T04:38:00.683Z,55.57
2018-02-11T04:40:28.149Z,55.55
2018-02-11T04:42:55.639Z,55.29
2018-02-11T04:45:23.053Z,55.33
2018-02-11T04:47:50.510Z,55.45
2018-02-11T04:50:17.968Z,55.62
2018-02-11T04:52:45.429Z,56.00
2018-02-11T04:55:12.889Z,55.95
2018-02-11T04:57:40.361Z,55.92
2018-02-11T05:00:07.818Z,55.77
2018-02-11T05:02:35.281Z,55.84
2018-02-11T05:05:02.834Z,55.86
2018-02-11T05:07:30.340Z,55.79
2018-02-11T05:09:57.873Z,55.68
2018-02-11T05:12:25.383Z,55.53
2018-02-11T05:14:52.866Z,55.76
2018-02-11T05:17:20.348Z,55.56
2018-02-11T05:19:47.821Z,55.40
2018-02-11T05:22:15.278Z,55.48
2018-02-11T05:24:42.765Z,55.62
2018-02-11T05:27:10.251Z,55.57
2018-02-11T05:29:37.721Z,55.46
2018-02-11T05:32:05.169Z,55.35
2018-02-11T05:34:32.679Z,55.44
2018-02-11T05:37:00.208Z,55.09
2018-02-11T05:39:27.725Z,54.89
2018-02-11T05:41:55.187Z,54.68
2018-02-11T05:44:22.607Z,54.86
2018-02-11T05:46:50.085Z,55.03
2018-02-11T05:49:17.548Z,55.25
2018-02-11T05:51:45.002Z,55.34
2018-02-11T05:54:12.508Z,55.34
2018-02-11T05:56:39.929Z,55.41
2018-02-11T05:59:07.430Z,55.27
2018-02-11T06:01:34.915Z,55.35
2018-02-11T06:04:02.334Z,55.32
2018-02-11T06:06:29.793Z,55.57
2018-02-11T06:08:57.196Z,55.49
2018-02-11T06:11:24.628Z,55.48
2018-02-11T06:13:52.221Z,55.70
2018-02-11T06:16:19.869Z,55.89
2018-02-11T06:18:47.387Z,56.06
2018-02-11T06:21:14.904Z,56.45
2018-02-11T06:23:42.397Z,56.66
2018-02-11T06:28:43.703Z,57.00
2018-02-11T06:31:11.259Z,57.07
2018-02-11T06:33:38.704Z,57.30
2018-02-11T06:36:06.187Z,57.22
2018-02-11T06:38:33.694Z,57.33
2018-02-11T06:41:01.150Z,57.37
2018-02-11T06:43:28.651Z,57.84
2018-02-11T06:45:56.300Z,57.89
2018-02-11T06:48:23.851Z,57.85
2018-02-11T06:50:51.319Z,57.88
2018-02-11T06:53:18.774Z,57.89
2018-02-11T06:55:46.293Z,58.03
2018-02-11T06:58:13.800Z,58.42
2018-02-11T07:00:41.255Z,58.71
2018-02-11T07:03:08.803Z,58.89
2018-02-11T07:05:36.304Z,59.09
2018-02-11T07:08:03.770Z,59.34
2018-02-11T07:10:31.270Z,59.65
2018-02-11T07:12:58.762Z,59.80
2018-02-11T07:15:26.237Z,59.96
2018-02-11T07:17:53.724Z,60.18
2018-02-11T07:20:21.185Z,60.35
2018-02-11T07:22:48.684Z,60.55
2018-02-11T07:25:16.197Z,60.92
2018-02-11T07:27:43.623Z,61.04
2018-02-11T07:30:11.094Z,61.04
2018-02-11T07:32:38.538Z,61.42
2018-02-11T07:35:05.919Z,61.77
2018-02-11T07:37:33.479Z,62.25
2018-02-11T07:40:00.985Z,62.79
2018-02-11T07:42:28.469Z,62.91
2018-02-11T07:44:55.986Z,63.22
2018-02-11T07:47:23.495Z,63.52
2018-02-11T07:49:51.022Z,64.24
2018-02-11T07:52:18.683Z,64.55
2018-02-11T07:54:46.177Z,64.53
2018-02-11T07:57:13.792Z,64.54
2018-02-11T07:59:41.316Z,64.77
2018-02-11T08:02:08.713Z,64.65
2018-02-11T08:04:36.206Z,64.49
2018-02-11T08:07:03.711Z,64.42
2018-02-11T08:09:31.191Z,64.56
2018-02-11T08:11:58.713Z,65.19
2018-02-11T08:14:26.215Z,65.71
2018-02-11T08:16:53.624Z,65.63
2018-02-11T08:19:21.062Z,65.52
2018-02-11T08:21:48.522Z,65.66
2018-02-11T08:24:16.012Z,66.40
2018-02-11T08:26:43.504Z,67.43
2018-02-11T08:29:10.897Z,67.77
2018-02-11T08:31:38.383Z,68.36
2018-02-11T08:34:05.894Z,68.65
2018-02-11T08:36:33.457Z,69.34
2018-02-11T08:39:00.947Z,69.39
2018-02-11T08:41:28.367Z,69.49
2018-02-11T08:43:55.783Z,69.80
2018-02-11T08:46:23.282Z,69.74
2018-02-11T08:48:50.718Z,69.57
2018-02-11T08:51:18.282Z,69.81
2018-02-11T08:53:45.780Z,69.83
2018-02-11T08:56:13.380Z,70.09
2018-02-11T08:58:40.882Z,69.50
2018-02-11T09:01:08.379Z,69.13
2018-02-11T09:03:35.903Z,68.96
2018-02-11T09:06:03.407Z,68.25
2018-02-11T09:08:30.818Z,67.97
2018-02-11T09:10:58.276Z,67.92
2018-02-11T09:13:25.813Z,68.01
2018-02-11T09:15:53.272Z,68.86
2018-02-11T09:18:20.775Z,68.99
2018-02-11T09:20:48.237Z,69.07
2018-02-11T09:23:15.740Z,69.13
2018-02-11T09:25:43.217Z,69.24
2018-02-11T09:28:10.707Z,68.89
2018-02-11T09:30:38.440Z,69.06
2018-02-11T09:33:05.886Z,69.52
2018-02-11T09:35:33.402Z,69.25
2018-02-11T09:38:00.888Z,68.52
2018-02-11T09:40:28.385Z,68.15
2018-02-11T09:42:55.788Z,67.68
2018-02-11T09:45:23.267Z,67.25
2018-02-11T09:47:50.747Z,66.45
2018-02-11T09:50:19.062Z,66.41
2018-02-11T09:52:46.509Z,67.08
2018-02-11T09:55:14.016Z,67.31
2018-02-11T09:57:41.488Z,67.37
2018-02-11T10:00:09.017Z,67.54
2018-02-11T10:02:36.459Z,68.00
2018-02-11T10:05:03.848Z,67.85
2018-02-11T10:07:31.440Z,67.28
2018-02-11T10:09:58.897Z,66.35
2018-02-11T10:12:26.303Z,65.43
2018-02-11T10:14:53.754Z,64.66
2018-02-11T10:17:21.197Z,63.90
2018-02-11T10:19:49.516Z,63.06
2018-02-11T10:22:17.072Z,63.97
2018-02-11T10:24:44.528Z,64.27
2018-02-11T10:27:11.986Z,64.18
2018-02-11T10:29:39.552Z,64.07
2018-02-11T10:32:07.416Z,64.14
2018-02-11T10:34:34.921Z,64.07
2018-02-11T10:37:02.426Z,64.99
2018-02-11T10:39:29.937Z,65.13
2018-02-11T10:41:57.457Z,65.11
2018-02-11T10:44:24.974Z,65.75
2018-02-11T10:46:52.464Z,65.33
2018-02-11T10:49:19.912Z,65.32
2018-02-11T10:51:47.370Z,65.62
2018-02-11T10:54:14.964Z,65.48
2018-02-11T10:56:42.469Z,65.70
2018-02-11T10:59:09.951Z,65.75
2018-02-11T11:01:37.471Z,66.06
2018-02-11T11:04:04.978Z,66.76
2018-02-11T11:06:32.445Z,67.14
2018-02-11T11:09:00.871Z,66.90
2018-02-11T11:11:28.377Z,67.14
2018-02-11T11:13:55.849Z,67.21
2018-02-11T11:16:23.344Z,67.60
2018-02-11T11:18:50.891Z,68.53
2018-02-11T11:21:18.382Z,68.10
2018-02-11T11:23:45.838Z,67.95
2018-02-11T11:26:13.341Z,67.79
2018-02-11T11:28:40.790Z,67.83
2018-02-11T11:31:08.352Z,67.59
2018-02-11T11:33:35.829Z,67.58
2018-02-11T11:36:03.319Z,67.97
2018-02-11T11:38:30.827Z,68.15
2018-02-11T11:40:58.360Z,68.08
2018-02-11T11:43:25.844Z,68.33
2018-02-11T11:45:53.309Z,68.31
2018-02-11T11:48:20.775Z,68.23
2018-02-11T11:50:48.275Z,68.57
2018-02-11T11:53:15.782Z,68.57
2018-02-11T11:55:43.187Z,68.47
2018-02-11T11:58:10.631Z,66.96
2018-02-11T12:00:38.033Z,66.05
2018-02-11T12:03:05.534Z,65.56
2018-02-11T12:05:32.951Z,65.33
2018-02-11T12:08:00.355Z,65.59
2018-02-11T12:10:27.981Z,66.16
2018-02-11T12:12:55.441Z,66.27
2018-02-11T12:15:22.901Z,65.79
2018-02-11T12:17:50.426Z,65.19
2018-02-11T12:20:17.825Z,65.24
2018-02-11T12:22:45.323Z,64.98
2018-02-11T12:25:12.785Z,64.75
2018-02-11T12:27:40.277Z,64.96
2018-02-11T12:30:07.738Z,64.69
2018-02-11T12:32:35.251Z,64.39
2018-02-11T12:35:02.757Z,64.39
2018-02-11T12:37:30.315Z,64.33
2018-02-11T12:39:57.751Z,63.90
2018-02-11T12:42:25.282Z,63.30
2018-02-11T12:44:52.737Z,62.68
2018-02-11T12:47:20.239Z,62.57
2018-02-11T12:49:47.718Z,62.71
2018-02-11T12:52:15.207Z,62.74
2018-02-11T12:54:42.744Z,63.17
2018-02-11T12:57:10.211Z,63.71
2018-02-11T12:59:37.619Z,63.75
2018-02-11T13:02:05.103Z,64.20
2018-02-11T13:04:32.581Z,64.73
2018-02-11T13:07:00.062Z,64.93
2018-02-11T13:09:27.572Z,64.43
2018-02-11T13:11:55.058Z,64.45
2018-02-11T13:14:22.524Z,65.24
2018-02-11T13:16:49.942Z,65.79
2018-02-11T13:19:17.461Z,66.04
2018-02-11T13:21:44.961Z,66.29
2018-02-11T13:24:12.506Z,66.52
2018-02-11T13:26:39.952Z,67.05
2018-02-11T13:29:07.459Z,67.05
2018-02-11T13:31:34.951Z,67.09
2018-02-11T13:34:02.479Z,67.95
2018-02-11T13:36:29.990Z,68.78
2018-02-11T13:38:57.479Z,69.26
2018-02-11T13:41:24.884Z,69.32
2018-02-11T13:43:52.441Z,69.54
2018-02-11T13:46:19.915Z,69.49
2018-02-11T13:48:47.389Z,69.63
2018-02-11T13:51:14.965Z,69.78
2018-02-11T13:53:42.490Z,70.00
2018-02-11T13:56:11.127Z,69.84
2018-02-11T13:58:38.523Z,69.48
2018-02-11T14:01:05.919Z,69.43
2018-02-11T14:03:33.381Z,69.46
2018-02-11T14:06:01.042Z,69.13
2018-02-11T14:08:28.506Z,69.34
2018-02-11T14:10:56.035Z,69.39
2018-02-11T14:13:23.561Z,69.59
2018-02-11T14:15:51.038Z,69.66
2018-02-11T14:18:18.572Z,69.43
2018-02-11T14:20:46.033Z,68.69
2018-02-11T14:23:13.526Z,69.26
2018-02-11T14:25:41.010Z,69.43
2018-02-11T14:28:08.565Z,69.73
2018-02-11T14:30:36.058Z,69.50
2018-02-11T14:33:03.587Z,69.24
2018-02-11T14:35:31.106Z,68.85
2018-02-11T14:37:58.612Z,69.02
2018-02-11T14:40:26.136Z,69.45
2018-02-11T14:42:53.704Z,69.83
2018-02-11T14:45:21.227Z,70.17
2018-02-11T14:47:48.679Z,70.45
2018-02-11T14:50:16.166Z,70.59
2018-02-11T14:52:43.740Z,69.96
2018-02-11T14:55:11.217Z,69.34
2018-02-11T14:57:38.622Z,69.09
2018-02-11T15:00:06.050Z,69.50
2018-02-11T15:02:33.553Z,69.82
2018-02-11T15:05:01.025Z,70.18
2018-02-11T15:07:28.533Z,70.63
2018-02-11T15:09:56.055Z,70.82
2018-02-11T15:12:23.562Z,70.67
2018-02-11T15:14:51.971Z,69.99
2018-02-11T15:17:19.466Z,69.99
2018-02-11T15:19:46.920Z,69.95
2018-02-11T15:22:14.389Z,69.71
2018-02-11T15:24:42.070Z,69.96
2018-02-11T15:27:09.581Z,70.05
2018-02-11T15:29:37.053Z,70.10
2018-02-11T15:32:04.563Z,70.31
2018-02-11T15:34:32.026Z,70.36
2018-02-11T15:36:59.560Z,70.98
2018-02-11T15:39:27.078Z,71.29
2018-02-11T15:41:54.554Z,71.33
2018-02-11T15:44:22.079Z,71.34
2018-02-11T15:46:49.514Z,71.89
2018-02-11T15:49:17.046Z,72.18
2018-02-11T15:51:44.526Z,72.82
2018-02-11T15:54:11.998Z,73.46
2018-02-11T15:56:39.475Z,73.42
2018-02-11T15:59:07.002Z,73.36
2018-02-11T16:01:34.482Z,73.38
2018-02-11T16:04:02.571Z,73.28
2018-02-11T16:06:29.987Z,73.49
2018-02-11T16:08:57.567Z,73.64
2018-02-11T16:11:25.198Z,74.05
2018-02-11T16:13:52.699Z,74.16
2018-02-11T16:16:20.161Z,74.12
2018-02-11T16:18:47.640Z,74.15
2018-02-11T16:21:15.184Z,74.23
2018-02-11T16:23:42.674Z,74.15
2018-02-11T16:26:10.180Z,74.21
2018-02-11T16:28:37.722Z,74.41
2018-02-11T16:31:05.322Z,74.30
2018-02-11T16:33:32.798Z,74.43
2018-02-11T16:36:00.438Z,74.62
2018-02-11T16:38:27.996Z,74.90
2018-02-11T16:40:55.464Z,74.85
2018-02-11T16:43:22.974Z,74.73
2018-02-11T16:45:50.487Z,74.42
2018-02-11T16:48:17.982Z,74.28
2018-02-11T16:50:45.446Z,74.00
2018-02-11T16:53:12.955Z,73.93
2018-02-11T16:55:40.660Z,73.74
2018-02-11T16:58:08.128Z,73.66
2018-02-11T17:00:35.633Z,73.63
2018-02-11T17:03:03.160Z,73.56
2018-02-11T17:05:30.673Z,73.34
2018-02-11T17:07:58.118Z,73.30
2018-02-11T17:10:25.615Z,73.08
2018-02-11T17:12:53.107Z,72.82
2018-02-11T17:15:20.602Z,72.81
2018-02-11T17:17:48.139Z,72.58
2018-02-11T17:20:15.679Z,72.52
2018-02-11T17:22:43.229Z,72.36
2018-02-11T17:25:10.744Z,72.17
2018-02-11T17:27:38.207Z,71.79
2018-02-11T17:30:05.748Z,71.56
2018-02-11T17:32:33.243Z,71.62
2018-02-11T17:35:00.765Z,71.61
2018-02-11T17:37:28.271Z,71.76
2018-02-11T17:39:55.738Z,71.86
2018-02-11T17:42:23.232Z,71.81
2018-02-11T17:44:50.738Z,71.72
2018-02-11T17:47:18.274Z,71.52
2018-02-11T17:49:45.803Z,71.49
2018-02-11T17:52:13.315Z,71.47
2018-02-11T17:54:40.811Z,71.52
2018-02-11T17:57:08.305Z,71.50
2018-02-11T17:59:35.793Z,71.32
2018-02-11T18:02:03.235Z,71.39
2018-02-11T18:04:30.728Z,71.46
2018-02-11T18:06:58.234Z,71.35
2018-02-11T18:09:25.761Z,71.49
2018-02-11T18:11:53.225Z,71.56
2018-02-11T18:14:20.756Z,71.42
2018-02-11T18:16:48.214Z,71.37
2018-02-11T18:19:15.705Z,71.33
2018-02-11T18:21:43.209Z,71.33
2018-02-11T18:24:10.626Z,71.29
2018-02-11T18:26:38.128Z,71.35
2018-02-11T18:29:05.680Z,71.36
2018-02-11T18:31:33.168Z,71.30
2018-02-11T18:34:01.680Z,71.17
2018-02-11T18:36:29.165Z,71.02
2018-02-11T18:38:56.637Z,71.00
2018-02-11T18:41:24.118Z,71.11
2018-02-11T18:43:51.602Z,71.19
2018-02-11T18:46:19.167Z,71.22
2018-02-11T18:48:46.649Z,71.33
2018-02-11T18:51:14.192Z,71.37
2018-02-11T18:53:41.677Z,71.61
2018-02-11T18:56:09.207Z,71.63
2018-02-11T18:58:36.757Z,71.57
2018-02-11T19:01:04.255Z,71.33
2018-02-11T19:03:31.746Z,71.07
2018-02-11T19:05:59.828Z,70.91
2018-02-11T19:08:27.355Z,70.85
2018-02-11T19:10:54.832Z,70.67
2018-02-11T19:13:22.343Z,70.57
2018-02-11T19:15:50.638Z,70.54
2018-02-11T19:18:18.143Z,70.31
2018-02-11T19:20:45.608Z,70.30
2018-02-11T19:23:13.104Z,70.21
2018-02-11T19:25:40.611Z,70.19
2018-02-11T19:28:08.155Z,70.20
2018-02-11T19:30:35.642Z,70.11
2018-02-11T19:33:03.109Z,70.18
2018-02-11T19:35:30.655Z,70.16
2018-02-11T19:37:58.087Z,70.11
2018-02-11T19:40:25.591Z,70.14
2018-02-11T19:42:53.100Z,70.13
2018-02-11T19:45:20.583Z,70.02
2018-02-11T19:47:48.022Z,70.03
2018-02-11T19:50:15.666Z,69.79
2018-02-11T19:52:43.145Z,69.65
2018-02-11T19:55:10.661Z,69.37
2018-02-11T19:57:38.184Z,69.20
2018-02-11T20:00:05.686Z,69.31
2018-02-11T20:02:33.199Z,69.39
2018-02-11T20:05:00.714Z,69.42
2018-02-11T20:07:28.330Z,69.47
2018-02-11T20:09:55.876Z,69.39
2018-02-11T20:12:23.384Z,69.49
2018-02-11T20:14:50.855Z,69.67
2018-02-11T20:17:18.344Z,69.44
2018-02-11T20:19:45.846Z,69.55
2018-02-11T20:22:13.315Z,69.77
2018-02-11T20:24:40.831Z,69.79
2018-02-11T20:27:08.347Z,69.79
2018-02-11T20:29:36.052Z,69.97
2018-02-11T20:32:03.528Z,70.33
2018-02-11T20:34:31.023Z,70.51
2018-02-11T20:36:58.569Z,70.53
2018-02-11T20:39:26.087Z,70.54
2018-02-11T20:41:53.621Z,70.38
2018-02-11T20:44:21.187Z,70.00
2018-02-11T20:46:48.742Z,69.95
2018-02-11T20:49:16.238Z,69.91
2018-02-11T20:51:43.712Z,69.50
2018-02-11T20:54:11.236Z,69.18
2018-02-11T20:56:38.713Z,69.11
2018-02-11T20:59:06.258Z,69.03
2018-02-11T21:01:33.721Z,68.82
2018-02-11T21:04:01.311Z,68.58
2018-02-11T21:06:28.944Z,68.38
2018-02-11T21:08:56.345Z,68.26
2018-02-11T21:11:23.894Z,67.98
2018-02-11T21:13:51.359Z,67.94
2018-02-11T21:16:18.830Z,67.42
2018-02-11T21:18:46.416Z,67.33
2018-02-11T21:21:13.905Z,67.14
2018-02-11T21:23:41.442Z,67.29
2018-02-11T21:26:08.905Z,66.97
2018-02-11T21:28:36.725Z,66.41
2018-02-11T21:31:04.210Z,66.14
2018-02-11T21:33:31.698Z,66.07
2018-02-11T21:35:59.128Z,65.97
2018-02-11T21:38:26.663Z,65.73
2018-02-11T21:40:54.195Z,65.43
2018-02-11T21:43:21.735Z,65.21
2018-02-11T21:45:49.201Z,65.29
2018-02-11T21:48:16.801Z,65.34
2018-02-11T21:50:44.300Z,65.63
2018-02-11T21:53:11.821Z,65.93
2018-02-11T21:55:39.342Z,66.12
2018-02-11T21:58:06.822Z,66.18
2018-02-11T22:00:34.295Z,66.22
2018-02-11T22:03:01.692Z,66.23
2018-02-11T22:05:29.214Z,66.33
2018-02-11T22:07:56.670Z,66.42
2018-02-11T22:10:24.133Z,66.46
2018-02-11T22:12:51.607Z,66.24
2018-02-11T22:15:19.146Z,66.02
2018-02-11T22:17:46.629Z,65.79
2018-02-11T22:20:14.092Z,66.02
2018-02-11T22:22:41.599Z,66.15
2018-02-11T22:25:09.024Z,66.12
2018-02-11T22:27:36.555Z,66.07
2018-02-11T22:30:04.043Z,66.33
2018-02-11T22:32:31.576Z,66.46
2018-02-11T22:34:59.089Z,66.89
2018-02-11T22:37:26.558Z,67.22
2018-02-11T22:39:54.042Z,67.49
2018-02-11T22:42:21.532Z,67.86
2018-02-11T22:44:49.014Z,68.16
2018-02-11T22:47:16.557Z,68.45
2018-02-11T22:49:44.071Z,68.69
2018-02-11T22:52:11.571Z,68.97
2018-02-11T22:54:39.068Z,69.08
2018-02-11T22:57:06.570Z,69.22
2018-02-11T22:59:34.099Z,69.31
2018-02-11T23:02:01.608Z,69.38
2018-02-11T23:04:29.141Z,69.31
2018-02-11T23:06:56.619Z,69.15
2018-02-11T23:09:24.030Z,68.99
2018-02-11T23:11:51.714Z,69.13
2018-02-11T23:14:19.228Z,69.08
2018-02-11T23:16:46.701Z,68.96
2018-02-11T23:19:14.216Z,69.03
2018-02-11T23:21:41.745Z,68.98
2018-02-11T23:24:09.332Z,69.00
2018-02-11T23:26:37.076Z,68.95
2018-02-11T23:29:04.553Z,69.10
2018-02-11T23:31:33.016Z,69.33
2018-02-11T23:34:00.535Z,69.30
2018-02-11T23:36:28.006Z,69.35
2018-02-11T23:38:55.429Z,69.47
2018-02-11T23:41:22.882Z,69.62
2018-02-11T23:43:50.382Z,69.76
2018-02-11T23:46:17.876Z,69.50
2018-02-11T23:48:45.288Z,69.51
2018-02-11T23:51:12.764Z,69.49
2018-02-11T23:53:40.213Z,69.56
2018-02-11T23:56:07.787Z,69.72
2018-02-11T23:58:35.294Z,69.83
